createdAt,value
2023-03-29T00:00:39.876Z,5.19
2023-03-29T00:03:08.259Z,4.42
2023-03-29T00:05:41.216Z,5.21
2023-03-29T00:08:14.583Z,5.18
2023-03-29T00:10:43.137Z,5.69
2023-03-29T00:13:11.433Z,5.77
2023-03-29T00:15:42.882Z,5.77
2023-03-29T00:18:11.189Z,5.81
2023-03-29T00:20:39.496Z,6.30
2023-03-29T00:23:07.771Z,5.79
2023-03-29T00:25:36.085Z,4.88
2023-03-29T00:28:04.395Z,4.69
2023-03-29T00:30:32.708Z,5.02
2023-03-29T00:33:02.405Z,5.01
2023-03-29T00:35:30.824Z,4.95
2023-03-29T00:37:59.076Z,5.45
2023-03-29T00:40:27.490Z,5.66
2023-03-29T00:42:58.266Z,5.52
2023-03-29T00:45:30.553Z,4.61
2023-03-29T00:48:02.900Z,4.50
2023-03-29T00:50:36.486Z,4.58
2023-03-29T00:53:08.617Z,4.46
2023-03-29T00:55:40.117Z,4.61
2023-03-29T00:58:13.141Z,4.53
2023-03-29T01:00:48.527Z,5.18
2023-03-29T01:03:24.861Z,5.61
2023-03-29T01:06:00.256Z,5.52
2023-03-29T01:08:33.831Z,5.09
2023-03-29T01:11:05.991Z,4.56
2023-03-29T01:13:39.562Z,4.79
2023-03-29T01:16:10.562Z,4.62
2023-03-29T01:18:39.927Z,5.08
2023-03-29T01:21:23.667Z,5.38
2023-03-29T01:24:22.252Z,5.71
2023-03-29T01:26:58.884Z,5.34
2023-03-29T01:29:32.186Z,5.07
2023-03-29T01:32:06.011Z,5.00
2023-03-29T01:34:39.762Z,4.98
2023-03-29T01:37:15.882Z,5.00
2023-03-29T01:39:44.179Z,5.27
2023-03-29T01:42:21.794Z,5.61
2023-03-29T01:44:58.647Z,5.86
2023-03-29T01:47:33.547Z,5.61
2023-03-29T01:50:12.821Z,5.66
2023-03-29T01:52:44.193Z,5.36
2023-03-29T01:55:17.415Z,5.57
2023-03-29T01:57:48.101Z,5.94
2023-03-29T02:00:21.160Z,5.07
2023-03-29T02:02:52.851Z,4.76
2023-03-29T02:05:24.560Z,3.99
2023-03-29T02:07:53.918Z,4.24
2023-03-29T02:10:23.906Z,4.71
2023-03-29T02:12:52.183Z,4.74
2023-03-29T02:15:23.711Z,4.03
2023-03-29T02:17:52.301Z,4.67
2023-03-29T02:20:23.728Z,4.59
2023-03-29T02:22:59.900Z,4.79
2023-03-29T02:25:28.297Z,4.90
2023-03-29T02:27:57.786Z,5.09
2023-03-29T02:30:32.308Z,4.71
2023-03-29T02:33:09.287Z,5.29
2023-03-29T02:35:46.122Z,4.67
2023-03-29T02:38:14.875Z,5.54
2023-03-29T02:40:44.461Z,5.80
2023-03-29T02:43:14.411Z,5.85
2023-03-29T02:45:45.460Z,5.89
2023-03-29T02:48:18.616Z,5.76
2023-03-29T02:50:51.644Z,5.41
2023-03-29T02:53:24.307Z,5.72
2023-03-29T02:55:53.087Z,5.38
2023-03-29T02:58:28.876Z,5.55
2023-03-29T03:01:02.244Z,5.74
2023-03-29T03:03:32.036Z,5.28
2023-03-29T03:06:01.822Z,5.19
2023-03-29T03:08:30.445Z,5.72
2023-03-29T03:10:59.863Z,5.75
2023-03-29T03:13:28.224Z,5.69
2023-03-29T03:16:13.761Z,5.70
2023-03-29T03:18:46.019Z,5.73
2023-03-29T03:21:14.392Z,4.61
2023-03-29T03:23:42.754Z,4.43
2023-03-29T03:26:10.983Z,5.03
2023-03-29T03:28:39.401Z,4.89
2023-03-29T03:31:08.439Z,4.61
2023-03-29T03:33:36.686Z,4.99
2023-03-29T03:36:07.274Z,5.13
2023-03-29T03:38:36.209Z,4.43
2023-03-29T03:41:05.259Z,4.65
2023-03-29T03:43:34.350Z,4.76
2023-03-29T03:46:03.003Z,4.64
2023-03-29T03:48:31.799Z,4.62
2023-03-29T03:51:00.591Z,4.35
2023-03-29T03:53:30.731Z,4.93
2023-03-29T03:55:58.940Z,5.12
2023-03-29T03:58:27.304Z,4.98
2023-03-29T04:00:56.185Z,4.86
2023-03-29T04:03:24.591Z,5.04
2023-03-29T04:05:52.985Z,5.34
2023-03-29T04:08:22.715Z,5.26
2023-03-29T04:10:55.380Z,4.99
2023-03-29T04:13:24.076Z,5.02
2023-03-29T04:15:54.258Z,4.62
2023-03-29T04:18:24.428Z,4.48
2023-03-29T04:20:52.997Z,4.76
2023-03-29T04:23:21.211Z,5.14
2023-03-29T04:25:49.574Z,5.25
2023-03-29T04:28:19.372Z,5.34
2023-03-29T04:30:48.350Z,5.24
2023-03-29T04:33:16.844Z,5.19
2023-03-29T04:35:45.207Z,4.55
2023-03-29T04:38:13.563Z,4.52
2023-03-29T04:40:42.320Z,4.31
2023-03-29T04:43:10.736Z,3.96
2023-03-29T04:45:40.655Z,3.94
2023-03-29T04:48:09.107Z,3.70
2023-03-29T04:50:37.655Z,3.88
2023-03-29T04:53:06.145Z,3.22
2023-03-29T04:55:34.542Z,3.05
2023-03-29T04:58:02.899Z,3.46
2023-03-29T05:00:31.742Z,3.42
2023-03-29T05:03:01.817Z,3.75
2023-03-29T05:05:30.190Z,3.90
2023-03-29T05:07:58.683Z,3.90
2023-03-29T05:10:27.375Z,4.13
2023-03-29T05:12:56.356Z,3.37
2023-03-29T05:15:24.654Z,3.91
2023-03-29T05:17:53.730Z,3.78
2023-03-29T05:20:25.021Z,4.14
2023-03-29T05:22:53.399Z,4.29
2023-03-29T05:25:21.736Z,4.30
2023-03-29T05:27:50.649Z,4.27
2023-03-29T05:30:19.457Z,4.58
2023-03-29T05:32:48.222Z,4.46
2023-03-29T05:35:16.633Z,4.36
2023-03-29T05:37:47.407Z,4.19
2023-03-29T05:40:15.746Z,4.43
2023-03-29T05:42:43.962Z,4.57
2023-03-29T05:45:13.052Z,4.47
2023-03-29T05:47:41.869Z,4.68
2023-03-29T05:50:11.485Z,4.29
2023-03-29T05:52:41.281Z,4.07
2023-03-29T05:55:11.858Z,4.93
2023-03-29T05:57:40.191Z,5.63
2023-03-29T06:00:19.817Z,5.81
2023-03-29T06:02:48.448Z,5.76
2023-03-29T06:05:16.911Z,6.40
2023-03-29T06:07:45.268Z,5.62
2023-03-29T06:10:15.808Z,6.11
2023-03-29T06:12:44.068Z,5.80
2023-03-29T06:15:13.451Z,6.19
2023-03-29T06:17:41.748Z,6.52
2023-03-29T06:20:11.263Z,7.59
2023-03-29T06:22:39.918Z,7.72
2023-03-29T06:25:11.080Z,8.52
2023-03-29T06:27:40.845Z,7.76
2023-03-29T06:30:10.075Z,8.58
2023-03-29T06:32:38.406Z,8.25
2023-03-29T06:35:07.612Z,8.07
2023-03-29T06:37:35.934Z,8.50
2023-03-29T06:40:07.485Z,9.37
2023-03-29T06:42:35.922Z,9.50
2023-03-29T06:45:06.344Z,9.07
2023-03-29T06:47:34.738Z,9.26
2023-03-29T06:50:03.457Z,9.53
2023-03-29T06:52:31.798Z,10.26
2023-03-29T06:55:01.738Z,10.40
2023-03-29T06:57:30.921Z,10.63
2023-03-29T06:59:59.166Z,10.63
2023-03-29T07:02:29.229Z,10.06
2023-03-29T07:04:57.654Z,9.42
2023-03-29T07:07:33.336Z,10.17
2023-03-29T07:10:01.943Z,10.43
2023-03-29T07:12:30.188Z,10.70
2023-03-29T07:14:58.667Z,10.09
2023-03-29T07:17:28.462Z,10.01
2023-03-29T07:19:56.693Z,10.00
2023-03-29T07:22:25.042Z,9.18
2023-03-29T07:24:53.446Z,10.34
2023-03-29T07:27:22.496Z,10.78
2023-03-29T07:29:51.601Z,10.26
2023-03-29T07:32:19.939Z,10.05
2023-03-29T07:34:49.656Z,10.37
2023-03-29T07:37:17.939Z,9.51
2023-03-29T07:39:46.305Z,10.27
2023-03-29T07:42:14.590Z,10.38
2023-03-29T07:44:42.937Z,11.38
2023-03-29T07:47:11.200Z,12.48
2023-03-29T07:49:39.438Z,12.53
2023-03-29T07:52:09.124Z,12.39
2023-03-29T07:54:37.653Z,12.29
2023-03-29T07:57:05.997Z,11.63
2023-03-29T07:59:34.327Z,10.46
2023-03-29T08:02:02.651Z,10.99
2023-03-29T08:04:31.159Z,11.98
2023-03-29T08:06:59.733Z,11.24
2023-03-29T08:09:29.515Z,12.61
2023-03-29T08:11:57.880Z,12.19
2023-03-29T08:14:26.317Z,12.08
2023-03-29T08:16:54.648Z,12.41
2023-03-29T08:19:22.999Z,12.42
2023-03-29T08:21:52.114Z,12.30
2023-03-29T08:24:21.058Z,13.84
2023-03-29T08:26:50.977Z,15.05
2023-03-29T08:29:19.244Z,13.97
2023-03-29T08:31:47.509Z,13.00
2023-03-29T08:34:16.255Z,12.81
2023-03-29T08:36:44.518Z,12.53
2023-03-29T08:39:12.790Z,14.11
2023-03-29T08:41:53.911Z,15.64
2023-03-29T08:44:36.352Z,14.75
2023-03-29T08:47:15.407Z,14.53
2023-03-29T08:49:48.385Z,15.23
2023-03-29T08:52:25.331Z,15.32
2023-03-29T08:54:57.353Z,16.06
2023-03-29T08:57:29.383Z,15.57
2023-03-29T09:00:01.898Z,16.33
2023-03-29T09:02:35.341Z,15.33
2023-03-29T09:05:10.312Z,15.61
2023-03-29T09:07:38.586Z,15.20
2023-03-29T09:10:07.394Z,15.22
2023-03-29T09:12:47.490Z,15.93
2023-03-29T09:15:20.729Z,15.79
2023-03-29T09:17:57.051Z,16.15
2023-03-29T09:20:38.479Z,15.57
2023-03-29T09:23:24.686Z,16.03
2023-03-29T09:26:02.256Z,17.06
2023-03-29T09:28:38.350Z,17.34
2023-03-29T09:31:15.464Z,17.59
2023-03-29T09:33:47.995Z,16.66
2023-03-29T09:36:19.513Z,16.22
2023-03-29T09:38:54.278Z,15.36
2023-03-29T09:41:29.636Z,16.38
2023-03-29T09:44:02.184Z,16.13
2023-03-29T09:46:40.551Z,17.56
2023-03-29T09:49:17.134Z,17.42
2023-03-29T09:51:48.084Z,18.20
2023-03-29T09:54:16.777Z,18.62
2023-03-29T09:56:45.150Z,17.96
2023-03-29T09:59:13.923Z,18.75
2023-03-29T10:01:46.166Z,18.87
2023-03-29T10:04:15.557Z,19.26
2023-03-29T10:06:47.234Z,17.98
2023-03-29T10:09:18.440Z,18.72
2023-03-29T10:11:51.130Z,19.80
2023-03-29T10:14:22.486Z,19.21
2023-03-29T10:16:58.286Z,19.26
2023-03-29T10:19:30.485Z,19.78
2023-03-29T10:22:01.574Z,20.64
2023-03-29T10:24:30.090Z,20.25
2023-03-29T10:27:01.297Z,20.30
2023-03-29T10:29:38.385Z,20.51
2023-03-29T10:32:18.544Z,19.58
2023-03-29T10:34:48.927Z,20.37
2023-03-29T10:37:19.596Z,20.08
2023-03-29T10:39:49.387Z,19.37
2023-03-29T10:42:21.050Z,19.54
2023-03-29T10:44:55.284Z,19.68
2023-03-29T10:47:25.668Z,19.16
2023-03-29T10:49:57.169Z,20.30
2023-03-29T10:52:26.783Z,20.26
2023-03-29T10:54:59.392Z,19.68
2023-03-29T10:57:35.619Z,20.22
2023-03-29T11:00:11.416Z,18.69
2023-03-29T11:03:16.517Z,19.46
2023-03-29T11:05:55.415Z,19.72
2023-03-29T11:08:39.654Z,19.27
2023-03-29T11:11:18.890Z,18.88
2023-03-29T11:13:58.013Z,18.81
2023-03-29T11:16:37.241Z,19.97
2023-03-29T11:19:27.265Z,19.88
2023-03-29T11:22:03.460Z,19.40
2023-03-29T11:24:59.454Z,19.74
2023-03-29T11:27:35.966Z,19.94
2023-03-29T11:30:19.079Z,20.55
2023-03-29T11:32:57.920Z,21.04
2023-03-29T11:35:46.684Z,20.51
2023-03-29T11:38:23.846Z,20.20
2023-03-29T11:40:58.767Z,19.85
2023-03-29T11:43:34.357Z,19.84
2023-03-29T11:46:09.997Z,20.20
2023-03-29T11:48:42.536Z,19.69
2023-03-29T11:51:19.999Z,20.03
2023-03-29T11:53:59.916Z,17.78
2023-03-29T11:56:32.476Z,18.07
2023-03-29T11:59:08.338Z,18.73
2023-03-29T12:01:41.314Z,17.88
2023-03-29T12:04:14.969Z,18.45
2023-03-29T12:06:49.590Z,17.91
2023-03-29T12:09:26.785Z,17.66
2023-03-29T12:12:03.197Z,18.08
2023-03-29T12:14:43.843Z,18.78
2023-03-29T12:17:17.202Z,18.93
2023-03-29T12:19:52.964Z,18.05
2023-03-29T12:22:23.858Z,17.62
2023-03-29T12:24:55.217Z,15.98
2023-03-29T12:27:31.115Z,17.36
2023-03-29T12:30:45.853Z,17.92
2023-03-29T12:33:40.472Z,17.37
2023-03-29T12:36:19.231Z,16.92
2023-03-29T12:38:52.806Z,17.78
2023-03-29T12:41:23.354Z,17.72
2023-03-29T12:43:52.365Z,17.59
2023-03-29T12:46:24.322Z,18.11
2023-03-29T12:48:58.326Z,16.87
2023-03-29T12:51:33.067Z,17.03
2023-03-29T12:54:09.793Z,16.71
2023-03-29T12:56:41.746Z,17.29
2023-03-29T12:59:25.752Z,16.37
2023-03-29T13:02:01.320Z,17.17
2023-03-29T13:04:49.757Z,18.48
2023-03-29T13:07:31.361Z,16.94
2023-03-29T13:10:03.418Z,16.57
2023-03-29T13:12:40.825Z,16.83
2023-03-29T13:15:24.059Z,16.50
2023-03-29T13:18:00.353Z,16.93
2023-03-29T13:20:42.338Z,16.77
2023-03-29T13:23:28.228Z,16.65
2023-03-29T13:26:19.837Z,17.03
2023-03-29T13:29:07.401Z,16.73
2023-03-29T13:31:41.866Z,17.49
2023-03-29T13:34:24.021Z,17.51
2023-03-29T13:37:04.748Z,16.44
2023-03-29T13:39:37.122Z,16.63
2023-03-29T13:42:20.189Z,16.38
2023-03-29T13:44:50.281Z,16.73
2023-03-29T13:47:48.900Z,16.28
2023-03-29T13:50:36.897Z,16.10
2023-03-29T13:53:12.412Z,15.85
2023-03-29T13:55:48.563Z,15.49
2023-03-29T13:58:29.224Z,15.01
2023-03-29T14:01:02.850Z,15.18
2023-03-29T14:03:38.502Z,14.99
2023-03-29T14:06:08.691Z,16.01
2023-03-29T14:08:41.615Z,15.01
2023-03-29T14:11:21.268Z,15.05
2023-03-29T14:13:53.867Z,14.47
2023-03-29T14:16:22.870Z,15.36
2023-03-29T14:18:52.353Z,14.55
2023-03-29T14:21:22.225Z,14.91
2023-03-29T14:23:57.369Z,14.46
2023-03-29T14:26:31.027Z,14.56
2023-03-29T14:29:02.908Z,14.92
2023-03-29T14:31:33.001Z,15.79
2023-03-29T14:34:03.281Z,15.53
2023-03-29T14:36:33.476Z,15.08
2023-03-29T14:39:05.802Z,14.54
2023-03-29T14:41:37.122Z,15.06
2023-03-29T14:44:08.431Z,14.11
2023-03-29T14:46:37.685Z,15.00
2023-03-29T14:49:06.642Z,14.81
2023-03-29T14:51:35.242Z,14.59
2023-03-29T14:54:05.699Z,14.35
2023-03-29T14:56:34.926Z,14.29
2023-03-29T14:59:06.080Z,13.17
2023-03-29T15:01:45.380Z,14.12
2023-03-29T15:04:14.335Z,14.79
2023-03-29T15:06:45.012Z,14.29
2023-03-29T15:09:18.722Z,13.50
2023-03-29T15:11:53.769Z,13.50
2023-03-29T15:14:24.878Z,13.94
2023-03-29T15:17:05.209Z,13.53
2023-03-29T15:19:34.541Z,13.46
2023-03-29T15:22:06.196Z,13.28
2023-03-29T15:24:35.362Z,13.31
2023-03-29T15:27:05.666Z,13.91
2023-03-29T15:29:40.585Z,13.14
2023-03-29T15:32:11.723Z,13.08
2023-03-29T15:34:40.184Z,13.42
2023-03-29T15:37:11.962Z,13.19
2023-03-29T15:39:44.389Z,13.08
2023-03-29T15:42:12.854Z,12.43
2023-03-29T15:44:41.363Z,12.70
2023-03-29T15:47:13.359Z,11.83
2023-03-29T15:49:42.028Z,11.91
2023-03-29T15:52:10.301Z,11.84
2023-03-29T15:54:38.606Z,12.19
2023-03-29T15:57:09.387Z,11.44
2023-03-29T15:59:37.758Z,11.18
2023-03-29T16:02:07.980Z,10.98
2023-03-29T16:04:37.708Z,10.81
2023-03-29T16:07:12.512Z,10.47
2023-03-29T16:09:40.929Z,10.30
2023-03-29T16:12:09.359Z,10.11
2023-03-29T16:14:37.830Z,10.85
2023-03-29T16:17:07.204Z,11.32
2023-03-29T16:19:37.833Z,10.82
2023-03-29T16:22:07.656Z,10.56
2023-03-29T16:24:37.351Z,11.17
2023-03-29T16:27:05.993Z,10.83
2023-03-29T16:29:34.337Z,11.29
2023-03-29T16:32:04.026Z,11.10
2023-03-29T16:34:36.531Z,10.77
2023-03-29T16:37:06.332Z,10.99
2023-03-29T16:39:35.000Z,10.78
2023-03-29T16:42:03.452Z,10.27
2023-03-29T16:44:31.761Z,10.24
2023-03-29T16:47:00.271Z,10.66
2023-03-29T16:49:28.636Z,10.63
2023-03-29T16:51:57.288Z,10.66
2023-03-29T16:54:29.833Z,10.66
2023-03-29T16:56:58.200Z,10.65
2023-03-29T16:59:27.166Z,10.46
2023-03-29T17:01:55.640Z,10.00
2023-03-29T17:04:24.074Z,10.11
2023-03-29T17:06:52.410Z,10.06
2023-03-29T17:09:21.403Z,10.09
2023-03-29T17:11:51.117Z,10.07
2023-03-29T17:14:19.495Z,9.83
2023-03-29T17:16:47.847Z,10.58
2023-03-29T17:19:16.161Z,10.42
2023-03-29T17:21:44.691Z,10.14
2023-03-29T17:24:13.173Z,10.29
2023-03-29T17:26:42.715Z,10.76
2023-03-29T17:29:14.335Z,10.53
2023-03-29T17:31:47.848Z,10.49
2023-03-29T17:34:16.516Z,10.30
2023-03-29T17:36:45.966Z,10.46
2023-03-29T17:39:15.975Z,10.48
2023-03-29T17:41:44.313Z,10.50
2023-03-29T17:44:14.127Z,10.42
2023-03-29T17:46:42.602Z,10.35
2023-03-29T17:49:11.126Z,10.16
2023-03-29T17:51:39.428Z,10.60
2023-03-29T17:54:07.671Z,10.60
2023-03-29T17:56:36.222Z,10.38
2023-03-29T17:59:04.569Z,10.24
2023-03-29T18:01:35.343Z,10.07
2023-03-29T18:04:04.912Z,10.24
2023-03-29T18:06:33.193Z,10.44
2023-03-29T18:09:01.765Z,10.58
2023-03-29T18:11:30.226Z,9.98
2023-03-29T18:14:00.363Z,9.56
2023-03-29T18:16:28.759Z,9.55
2023-03-29T18:18:58.512Z,9.33
2023-03-29T18:21:27.594Z,9.31
2023-03-29T18:23:56.935Z,9.58
2023-03-29T18:26:25.955Z,9.53
2023-03-29T18:28:54.440Z,9.20
2023-03-29T18:31:22.870Z,9.72
2023-03-29T18:33:51.274Z,9.60
2023-03-29T18:36:21.249Z,9.44
2023-03-29T18:38:49.573Z,9.41
2023-03-29T18:41:18.063Z,9.47
2023-03-29T18:43:47.474Z,9.66
2023-03-29T18:46:15.918Z,9.79
2023-03-29T18:48:44.284Z,9.84
2023-03-29T18:51:13.490Z,9.91
2023-03-29T18:53:44.562Z,9.85
2023-03-29T18:56:12.938Z,9.58
2023-03-29T18:58:41.431Z,9.69
2023-03-29T19:01:10.989Z,9.28
2023-03-29T19:03:39.608Z,9.60
2023-03-29T19:06:08.498Z,9.85
2023-03-29T19:08:41.383Z,9.87
2023-03-29T19:11:14.412Z,10.42
2023-03-29T19:13:43.115Z,9.93
2023-03-29T19:16:12.274Z,10.39
2023-03-29T19:18:40.986Z,10.75
2023-03-29T19:21:09.564Z,10.83
2023-03-29T19:23:37.795Z,10.53
2023-03-29T19:26:07.154Z,10.39
2023-03-29T19:28:37.040Z,10.64
2023-03-29T19:31:05.840Z,10.81
2023-03-29T19:33:34.138Z,10.70
2023-03-29T19:36:02.684Z,10.94
2023-03-29T19:38:31.185Z,10.97
2023-03-29T19:40:59.528Z,10.98
2023-03-29T19:43:27.773Z,11.15
2023-03-29T19:45:57.341Z,11.20
2023-03-29T19:48:25.909Z,11.14
2023-03-29T19:50:54.216Z,11.14
2023-03-29T19:53:23.228Z,11.11
2023-03-29T19:55:52.575Z,10.96
2023-03-29T19:58:21.831Z,11.03
2023-03-29T20:00:50.778Z,10.93
2023-03-29T20:03:21.984Z,10.79
2023-03-29T20:05:50.609Z,10.87
2023-03-29T20:08:18.882Z,10.53
2023-03-29T20:10:47.166Z,10.74
2023-03-29T20:13:21.903Z,10.69
2023-03-29T20:15:56.217Z,10.66
2023-03-29T20:18:25.973Z,9.54
2023-03-29T20:20:54.852Z,9.39
2023-03-29T20:23:23.062Z,9.34
2023-03-29T20:25:51.339Z,9.20
2023-03-29T20:28:19.832Z,9.35
2023-03-29T20:30:51.262Z,9.52
2023-03-29T20:33:19.796Z,9.31
2023-03-29T20:35:50.068Z,8.88
2023-03-29T20:38:18.404Z,8.48
2023-03-29T20:40:46.739Z,8.39
2023-03-29T20:43:18.412Z,8.71
2023-03-29T20:45:53.567Z,8.83
2023-03-29T20:48:24.824Z,8.57
2023-03-29T20:50:54.545Z,8.40
2023-03-29T20:53:22.822Z,9.17
2023-03-29T20:55:51.812Z,8.53
2023-03-29T20:58:20.148Z,8.88
2023-03-29T21:00:48.546Z,9.36
2023-03-29T21:03:17.017Z,9.53
2023-03-29T21:05:45.412Z,9.74
2023-03-29T21:08:18.297Z,10.05
2023-03-29T21:10:47.991Z,10.04
2023-03-29T21:13:18.383Z,10.32
2023-03-29T21:15:47.865Z,10.06
2023-03-29T21:18:16.346Z,9.86
2023-03-29T21:20:45.958Z,9.72
2023-03-29T21:23:16.136Z,9.87
2023-03-29T21:25:44.679Z,10.13
2023-03-29T21:28:13.446Z,10.18
2023-03-29T21:30:41.860Z,10.22
2023-03-29T21:33:10.232Z,10.32
2023-03-29T21:35:38.634Z,10.18
2023-03-29T21:38:06.951Z,9.83
2023-03-29T21:40:39.121Z,9.01
2023-03-29T21:43:07.530Z,8.35
2023-03-29T21:45:35.878Z,7.63
2023-03-29T21:48:04.302Z,7.17
2023-03-29T21:50:33.958Z,7.14
2023-03-29T21:53:02.861Z,7.45
2023-03-29T21:55:31.140Z,7.72
2023-03-29T21:58:00.820Z,8.45
2023-03-29T22:00:29.207Z,8.75
2023-03-29T22:02:57.506Z,8.87
2023-03-29T22:05:26.226Z,9.17
2023-03-29T22:07:54.491Z,9.50
2023-03-29T22:10:23.960Z,9.26
2023-03-29T22:12:52.795Z,9.35
2023-03-29T22:15:22.563Z,9.75
2023-03-29T22:17:53.442Z,9.75
2023-03-29T22:20:22.416Z,9.35
2023-03-29T22:22:52.206Z,9.40
2023-03-29T22:25:22.932Z,9.61
2023-03-29T22:27:51.600Z,9.54
2023-03-29T22:30:20.078Z,9.86
2023-03-29T22:32:49.823Z,10.00
2023-03-29T22:35:18.241Z,9.96
2023-03-29T22:37:46.645Z,10.06
2023-03-29T22:40:15.034Z,9.87
2023-03-29T22:42:43.356Z,9.58
2023-03-29T22:45:12.242Z,9.81
2023-03-29T22:47:40.613Z,9.61
2023-03-29T22:50:11.474Z,9.32
2023-03-29T22:52:39.787Z,9.50
2023-03-29T22:55:08.859Z,8.85
2023-03-29T22:57:37.147Z,8.44
2023-03-29T23:00:09.345Z,8.62
2023-03-29T23:02:38.193Z,8.27
2023-03-29T23:05:07.173Z,8.06
2023-03-29T23:07:37.395Z,8.82
2023-03-29T23:10:06.773Z,8.90
2023-03-29T23:12:36.256Z,9.02
2023-03-29T23:15:05.212Z,9.06
2023-03-29T23:17:35.074Z,9.17
2023-03-29T23:20:06.076Z,9.11
2023-03-29T23:22:36.479Z,8.63
2023-03-29T23:25:06.851Z,7.56
2023-03-29T23:27:35.061Z,7.50
2023-03-29T23:30:03.453Z,7.40
2023-03-29T23:32:31.782Z,7.88
2023-03-29T23:35:01.384Z,7.68
2023-03-29T23:37:29.717Z,7.77
2023-03-29T23:39:58.045Z,7.43
2023-03-29T23:42:27.651Z,6.89
2023-03-29T23:44:56.071Z,7.23
2023-03-29T23:47:24.504Z,6.90
2023-03-29T23:49:53.356Z,7.29
2023-03-29T23:52:23.258Z,7.74
2023-03-29T23:54:51.581Z,7.32
2023-03-29T23:57:19.915Z,7.34
2023-03-29T23:59:52.869Z,7.71
